createdAt,value
2023-04-07T00:01:47.735Z,62.53
2023-04-07T00:04:14.379Z,62.43
2023-04-07T00:06:40.993Z,62.67
2023-04-07T00:09:07.438Z,63.11
2023-04-07T00:11:33.911Z,61.75
2023-04-07T00:14:00.361Z,62.03
2023-04-07T00:16:27.300Z,62.36
2023-04-07T00:18:53.819Z,62.65
2023-04-07T00:21:20.263Z,61.98
2023-04-07T00:23:47.565Z,61.71
2023-04-07T00:26:14.020Z,61.36
2023-04-07T00:28:40.597Z,61.20
2023-04-07T00:31:07.101Z,60.76
2023-04-07T00:33:33.517Z,61.20
2023-04-07T00:35:59.982Z,60.67
2023-04-07T00:38:26.422Z,60.87
2023-04-07T00:40:59.458Z,60.59
2023-04-07T00:43:26.521Z,60.50
2023-04-07T00:45:53.818Z,60.59
2023-04-07T00:48:21.384Z,61.11
2023-04-07T00:50:47.837Z,60.37
2023-04-07T00:53:14.334Z,61.02
2023-04-07T00:55:41.290Z,60.83
2023-04-07T00:58:07.836Z,61.09
2023-04-07T01:00:48.565Z,61.13
2023-04-07T01:03:29.203Z,60.38
2023-04-07T01:06:01.021Z,60.19
2023-04-07T01:08:27.364Z,60.44
2023-04-07T01:10:59.809Z,59.96
2023-04-07T01:13:42.864Z,61.12
2023-04-07T01:16:31.997Z,61.06
2023-04-07T01:19:08.848Z,60.27
2023-04-07T01:21:37.807Z,60.28
2023-04-07T01:24:18.440Z,60.15
2023-04-07T01:26:47.074Z,59.94
2023-04-07T01:29:32.339Z,60.34
2023-04-07T01:32:01.505Z,60.93
2023-04-07T01:34:30.324Z,61.15
2023-04-07T01:36:59.289Z,60.51
2023-04-07T01:39:27.614Z,61.17
2023-04-07T01:41:56.052Z,61.43
2023-04-07T01:44:22.972Z,61.29
2023-04-07T01:46:52.947Z,60.95
2023-04-07T01:49:20.340Z,60.43
2023-04-07T01:51:50.613Z,60.87
2023-04-07T01:54:18.295Z,60.87
2023-04-07T01:56:45.269Z,61.05
2023-04-07T01:59:11.785Z,61.77
2023-04-07T02:01:38.550Z,61.50
2023-04-07T02:04:08.124Z,60.85
2023-04-07T02:07:01.362Z,61.88
2023-04-07T02:09:31.719Z,61.88
2023-04-07T02:12:00.679Z,61.90
2023-04-07T02:14:28.056Z,61.79
2023-04-07T02:16:56.086Z,61.88
2023-04-07T02:19:22.797Z,62.05
2023-04-07T02:21:51.509Z,62.16
2023-04-07T02:24:21.868Z,62.09
2023-04-07T02:26:48.432Z,62.17
2023-04-07T02:29:14.899Z,62.05
2023-04-07T02:31:41.354Z,62.38
2023-04-07T02:34:07.856Z,63.14
2023-04-07T02:36:34.274Z,63.20
2023-04-07T02:39:00.840Z,62.75
2023-04-07T02:41:27.472Z,63.54
2023-04-07T02:43:54.136Z,63.73
2023-04-07T02:46:20.861Z,64.29
2023-04-07T02:48:47.335Z,64.40
2023-04-07T02:51:13.746Z,64.48
2023-04-07T02:53:40.146Z,65.27
2023-04-07T02:56:06.913Z,64.57
2023-04-07T02:58:33.342Z,64.93
2023-04-07T03:00:59.742Z,64.74
2023-04-07T03:03:26.257Z,64.10
2023-04-07T03:05:52.719Z,64.66
2023-04-07T03:08:19.167Z,64.26
2023-04-07T03:10:45.764Z,64.51
2023-04-07T03:13:16.267Z,64.20
2023-04-07T03:15:43.349Z,64.51
2023-04-07T03:18:09.874Z,64.42
2023-04-07T03:20:36.375Z,63.75
2023-04-07T03:23:02.843Z,64.80
2023-04-07T03:25:29.348Z,64.39
2023-04-07T03:27:55.928Z,64.20
2023-04-07T03:30:22.314Z,64.24
2023-04-07T03:32:48.740Z,64.36
2023-04-07T03:35:15.212Z,64.38
2023-04-07T03:37:41.629Z,63.56
2023-04-07T03:40:08.515Z,63.99
2023-04-07T03:42:34.963Z,63.80
2023-04-07T03:45:01.625Z,64.33
2023-04-07T03:47:28.127Z,64.46
2023-04-07T03:49:54.528Z,63.88
2023-04-07T03:52:20.911Z,64.61
2023-04-07T03:54:47.297Z,65.13
2023-04-07T03:57:13.773Z,64.66
2023-04-07T03:59:40.357Z,64.35
2023-04-07T04:02:07.124Z,64.25
2023-04-07T04:04:33.658Z,64.25
2023-04-07T04:07:00.188Z,64.93
2023-04-07T04:09:26.621Z,65.42
2023-04-07T04:11:53.029Z,65.65
2023-04-07T04:14:19.507Z,65.77
2023-04-07T04:16:45.888Z,65.48
2023-04-07T04:19:12.287Z,65.11
2023-04-07T04:21:38.779Z,65.45
2023-04-07T04:24:05.491Z,65.54
2023-04-07T04:26:31.953Z,66.04
2023-04-07T04:28:58.457Z,65.83
2023-04-07T04:31:24.981Z,66.33
2023-04-07T04:33:52.593Z,66.02
2023-04-07T04:36:19.349Z,66.87
2023-04-07T04:38:46.035Z,66.53
2023-04-07T04:41:12.451Z,66.54
2023-04-07T04:43:38.846Z,66.63
2023-04-07T04:46:05.523Z,66.00
2023-04-07T04:48:31.980Z,66.97
2023-04-07T04:50:58.391Z,67.42
2023-04-07T04:53:24.910Z,67.44
2023-04-07T04:55:53.088Z,68.36
2023-04-07T04:58:20.749Z,67.89
2023-04-07T05:00:47.182Z,67.70
2023-04-07T05:03:13.830Z,67.51
2023-04-07T05:05:40.424Z,67.32
2023-04-07T05:08:07.329Z,67.74
2023-04-07T05:10:33.781Z,68.20
2023-04-07T05:13:00.275Z,67.96
2023-04-07T05:15:27.081Z,67.19
2023-04-07T05:17:53.519Z,67.86
2023-04-07T05:20:19.958Z,67.86
2023-04-07T05:22:46.387Z,68.18
2023-04-07T05:25:12.887Z,67.79
2023-04-07T05:27:39.307Z,68.28
2023-04-07T05:30:06.553Z,68.28
2023-04-07T05:32:32.989Z,68.64
2023-04-07T05:34:59.416Z,68.35
2023-04-07T05:37:25.964Z,67.74
2023-04-07T05:39:52.374Z,68.00
2023-04-07T05:42:18.828Z,67.46
2023-04-07T05:44:45.570Z,68.14
2023-04-07T05:47:12.053Z,67.62
2023-04-07T05:49:40.836Z,68.33
2023-04-07T05:52:07.281Z,68.56
2023-04-07T05:54:33.699Z,70.15
2023-04-07T05:57:00.131Z,69.92
2023-04-07T05:59:26.552Z,69.04
2023-04-07T06:01:53.132Z,68.84
2023-04-07T06:04:19.616Z,68.62
2023-04-07T06:06:46.589Z,68.73
2023-04-07T06:09:12.974Z,68.42
2023-04-07T06:11:39.364Z,68.09
2023-04-07T06:14:05.915Z,68.45
2023-04-07T06:16:32.400Z,68.75
2023-04-07T06:18:58.833Z,67.91
2023-04-07T06:21:27.330Z,67.68
2023-04-07T06:23:53.775Z,67.74
2023-04-07T06:26:21.617Z,67.81
2023-04-07T06:28:48.109Z,66.99
2023-04-07T06:31:14.692Z,67.60
2023-04-07T06:33:41.215Z,67.28
2023-04-07T06:36:08.112Z,66.21
2023-04-07T06:38:34.533Z,65.57
2023-04-07T06:41:00.927Z,65.95
2023-04-07T06:43:27.375Z,65.50
2023-04-07T06:45:53.845Z,66.30
2023-04-07T06:48:20.317Z,64.93
2023-04-07T06:50:48.981Z,65.04
2023-04-07T06:53:15.433Z,64.67
2023-04-07T06:55:41.924Z,64.06
2023-04-07T06:58:08.464Z,63.19
2023-04-07T07:00:36.329Z,62.59
2023-04-07T07:03:02.929Z,61.61
2023-04-07T07:05:29.543Z,61.54
2023-04-07T07:07:56.179Z,61.39
2023-04-07T07:10:22.716Z,60.87
2023-04-07T07:12:49.940Z,60.90
2023-04-07T07:15:16.438Z,60.92
2023-04-07T07:17:42.939Z,59.95
2023-04-07T07:20:10.149Z,59.01
2023-04-07T07:22:36.895Z,58.97
2023-04-07T07:25:03.687Z,58.71
2023-04-07T07:27:30.478Z,57.70
2023-04-07T07:29:56.908Z,58.19
2023-04-07T07:32:23.365Z,58.12
2023-04-07T07:34:49.866Z,58.21
2023-04-07T07:37:16.536Z,57.54
2023-04-07T07:39:42.928Z,57.26
2023-04-07T07:42:09.419Z,57.20
2023-04-07T07:44:35.978Z,57.42
2023-04-07T07:47:02.431Z,57.11
2023-04-07T07:49:28.935Z,56.22
2023-04-07T07:51:55.847Z,56.82
2023-04-07T07:54:22.345Z,57.56
2023-04-07T07:56:49.087Z,56.82
2023-04-07T07:59:16.693Z,55.40
2023-04-07T08:01:44.357Z,55.75
2023-04-07T08:04:11.068Z,55.02
2023-04-07T08:06:37.719Z,55.21
2023-04-07T08:09:04.234Z,54.26
2023-04-07T08:11:30.791Z,54.81
2023-04-07T08:13:57.177Z,54.76
2023-04-07T08:16:24.052Z,54.17
2023-04-07T08:18:50.674Z,54.84
2023-04-07T08:21:17.187Z,54.66
2023-04-07T08:23:43.689Z,54.92
2023-04-07T08:26:10.121Z,54.24
2023-04-07T08:28:36.614Z,53.77
2023-04-07T08:31:03.243Z,53.64
2023-04-07T08:33:29.838Z,53.70
2023-04-07T08:35:56.748Z,53.07
2023-04-07T08:38:23.172Z,54.01
2023-04-07T08:41:01.382Z,54.29
2023-04-07T08:43:29.083Z,54.69
2023-04-07T08:45:57.667Z,54.58
2023-04-07T08:48:28.664Z,54.51
2023-04-07T08:50:56.409Z,54.46
2023-04-07T08:53:32.349Z,55.37
2023-04-07T08:56:00.086Z,55.84
2023-04-07T08:58:27.319Z,56.41
2023-04-07T09:00:53.925Z,57.46
2023-04-07T09:03:21.323Z,57.15
2023-04-07T09:05:51.221Z,57.06
2023-04-07T09:08:17.743Z,56.14
2023-04-07T09:10:44.194Z,56.86
2023-04-07T09:13:10.806Z,56.68
2023-04-07T09:15:38.898Z,56.64
2023-04-07T09:18:06.569Z,57.20
2023-04-07T09:20:59.748Z,56.82
2023-04-07T09:23:34.828Z,57.14
2023-04-07T09:26:18.220Z,57.70
2023-04-07T09:28:47.387Z,57.54
2023-04-07T09:31:14.027Z,57.80
2023-04-07T09:33:40.670Z,58.29
2023-04-07T09:36:07.872Z,58.67
2023-04-07T09:38:36.570Z,58.94
2023-04-07T09:41:10.512Z,59.24
2023-04-07T09:43:39.591Z,59.62
2023-04-07T09:46:16.923Z,60.17
2023-04-07T09:48:46.469Z,60.70
2023-04-07T09:51:18.452Z,61.23
2023-04-07T09:53:50.288Z,61.42
2023-04-07T09:56:23.981Z,62.29
2023-04-07T09:58:54.451Z,62.84
2023-04-07T10:01:21.954Z,63.18
2023-04-07T10:03:50.818Z,63.22
2023-04-07T10:06:17.891Z,62.78
2023-04-07T10:08:44.646Z,63.33
2023-04-07T10:11:11.131Z,63.20
2023-04-07T10:13:40.436Z,64.17
2023-04-07T10:16:08.056Z,63.61
2023-04-07T10:18:36.835Z,63.19
2023-04-07T10:21:07.805Z,63.60
2023-04-07T10:24:20.836Z,63.33
2023-04-07T10:27:01.496Z,64.21
2023-04-07T10:29:31.490Z,66.42
2023-04-07T10:31:59.798Z,66.25
2023-04-07T10:34:51.135Z,66.95
2023-04-07T10:37:21.198Z,66.97
2023-04-07T10:39:52.275Z,66.83
2023-04-07T10:42:37.106Z,66.69
2023-04-07T10:45:04.749Z,67.13
2023-04-07T10:47:31.346Z,66.75
2023-04-07T10:50:22.799Z,67.35
2023-04-07T10:53:11.043Z,67.15
2023-04-07T10:55:45.530Z,67.48
2023-04-07T10:58:30.881Z,69.39
2023-04-07T11:00:57.333Z,69.53
2023-04-07T11:03:25.003Z,69.05
2023-04-07T11:05:51.549Z,69.54
2023-04-07T11:08:34.533Z,69.05
2023-04-07T11:11:01.072Z,69.23
2023-04-07T11:13:27.808Z,69.11
2023-04-07T11:15:54.557Z,70.13
2023-04-07T11:18:23.744Z,70.30
2023-04-07T11:20:55.685Z,70.06
2023-04-07T11:23:23.865Z,69.80
2023-04-07T11:25:52.262Z,69.68
2023-04-07T11:28:19.089Z,69.64
2023-04-07T11:30:48.633Z,70.65
2023-04-07T11:33:17.675Z,71.38
2023-04-07T11:35:57.612Z,73.32
2023-04-07T11:38:27.171Z,74.18
2023-04-07T11:40:55.076Z,75.17
2023-04-07T11:43:26.484Z,74.77
2023-04-07T11:46:12.449Z,74.74
2023-04-07T11:48:40.791Z,75.21
2023-04-07T11:51:16.482Z,75.30
2023-04-07T11:53:43.233Z,74.91
2023-04-07T11:56:16.373Z,75.83
2023-04-07T11:58:50.307Z,76.19
2023-04-07T12:01:17.145Z,75.81
2023-04-07T12:03:59.500Z,76.65
2023-04-07T12:06:35.011Z,77.24
2023-04-07T12:09:02.776Z,78.17
2023-04-07T12:11:30.058Z,78.51
2023-04-07T12:13:57.070Z,79.31
2023-04-07T12:16:24.571Z,80.09
2023-04-07T12:18:54.518Z,79.76
2023-04-07T12:21:21.172Z,80.75
2023-04-07T12:23:48.735Z,80.80
2023-04-07T12:26:15.423Z,81.30
2023-04-07T12:28:41.924Z,81.20
2023-04-07T12:31:08.407Z,80.95
2023-04-07T12:33:34.842Z,80.98
2023-04-07T12:36:01.427Z,81.58
2023-04-07T12:38:28.787Z,81.44
2023-04-07T12:40:55.356Z,80.93
2023-04-07T12:43:21.894Z,80.17
2023-04-07T12:45:48.446Z,79.84
2023-04-07T12:48:16.238Z,79.36
2023-04-07T12:50:42.728Z,79.78
2023-04-07T12:53:09.286Z,80.84
2023-04-07T12:55:36.592Z,81.01
2023-04-07T12:58:03.376Z,80.60
2023-04-07T13:00:29.939Z,81.09
2023-04-07T13:02:56.609Z,81.36
2023-04-07T13:05:23.329Z,81.20
2023-04-07T13:07:49.999Z,81.77
2023-04-07T13:10:16.575Z,81.31
2023-04-07T13:12:43.228Z,81.02
2023-04-07T13:15:09.814Z,81.42
2023-04-07T13:17:39.010Z,81.56
2023-04-07T13:20:06.735Z,82.81
2023-04-07T13:22:35.717Z,82.39
2023-04-07T13:25:02.522Z,81.79
2023-04-07T13:27:29.034Z,81.82
2023-04-07T13:29:55.829Z,81.90
2023-04-07T13:32:23.487Z,81.80
2023-04-07T13:34:50.189Z,81.88
2023-04-07T13:37:17.215Z,81.57
2023-04-07T13:39:43.613Z,81.74
2023-04-07T13:42:12.504Z,81.92
2023-04-07T13:44:40.096Z,81.82
2023-04-07T13:47:06.673Z,82.29
2023-04-07T13:49:33.162Z,82.12
2023-04-07T13:51:59.632Z,81.46
2023-04-07T13:54:26.114Z,81.15
2023-04-07T13:56:52.775Z,81.05
2023-04-07T13:59:19.595Z,81.27
2023-04-07T14:01:46.154Z,80.30
2023-04-07T14:04:13.232Z,81.43
2023-04-07T14:06:41.760Z,81.36
2023-04-07T14:09:08.469Z,81.13
2023-04-07T14:11:36.822Z,80.42
2023-04-07T14:14:03.450Z,81.47
2023-04-07T14:16:30.320Z,81.88
2023-04-07T14:18:57.146Z,81.62
2023-04-07T14:21:24.004Z,81.31
2023-04-07T14:23:51.295Z,80.98
2023-04-07T14:26:17.845Z,81.68
2023-04-07T14:28:44.381Z,81.32
2023-04-07T14:31:15.762Z,81.37
2023-04-07T14:33:46.215Z,81.03
2023-04-07T14:36:15.896Z,80.38
2023-04-07T14:38:43.316Z,80.56
2023-04-07T14:41:10.647Z,81.11
2023-04-07T14:43:37.813Z,81.22
2023-04-07T14:46:04.296Z,81.74
2023-04-07T14:48:31.021Z,81.45
2023-04-07T14:51:08.323Z,81.47
2023-04-07T14:53:35.580Z,80.91
2023-04-07T14:56:05.505Z,80.91
2023-04-07T14:58:32.387Z,80.90
2023-04-07T15:00:58.923Z,81.07
2023-04-07T15:03:25.537Z,81.28
2023-04-07T15:05:52.178Z,81.08
2023-04-07T15:08:18.674Z,80.22
2023-04-07T15:10:45.140Z,79.98
2023-04-07T15:13:11.557Z,81.00
2023-04-07T15:15:38.104Z,81.56
2023-04-07T15:18:04.580Z,81.42
2023-04-07T15:20:31.063Z,81.06
2023-04-07T15:22:57.773Z,81.62
2023-04-07T15:25:24.304Z,82.05
2023-04-07T15:27:50.731Z,81.53
2023-04-07T15:30:17.175Z,81.12
2023-04-07T15:33:00.329Z,82.15
2023-04-07T15:35:27.515Z,81.67
2023-04-07T15:37:54.002Z,82.16
2023-04-07T15:40:20.936Z,81.23
2023-04-07T15:42:47.437Z,81.70
2023-04-07T15:45:13.832Z,81.49
2023-04-07T15:47:40.320Z,81.67
2023-04-07T15:50:07.592Z,81.60
2023-04-07T15:52:34.016Z,81.49
2023-04-07T15:55:00.547Z,81.29
2023-04-07T15:57:27.029Z,82.29
2023-04-07T15:59:53.468Z,81.72
2023-04-07T16:02:20.135Z,81.37
2023-04-07T16:04:48.055Z,81.04
2023-04-07T16:07:14.525Z,79.90
2023-04-07T16:09:40.994Z,80.70
2023-04-07T16:12:07.579Z,81.00
2023-04-07T16:14:34.073Z,80.37
2023-04-07T16:17:00.895Z,81.10
2023-04-07T16:19:27.947Z,81.51
2023-04-07T16:21:55.008Z,82.47
2023-04-07T16:24:22.030Z,81.86
2023-04-07T16:26:50.494Z,81.27
2023-04-07T16:29:18.090Z,82.47
2023-04-07T16:31:44.731Z,81.79
2023-04-07T16:34:12.338Z,82.48
2023-04-07T16:36:39.054Z,82.95
2023-04-07T16:39:05.663Z,81.57
2023-04-07T16:41:32.257Z,81.64
2023-04-07T16:43:58.710Z,81.55
2023-04-07T16:46:31.857Z,81.86
2023-04-07T16:48:58.349Z,81.58
2023-04-07T16:51:26.870Z,81.94
2023-04-07T16:53:53.277Z,81.66
2023-04-07T16:56:21.907Z,81.40
2023-04-07T16:58:49.341Z,82.06
2023-04-07T17:01:16.009Z,82.42
2023-04-07T17:03:42.690Z,82.70
2023-04-07T17:06:09.308Z,82.41
2023-04-07T17:08:36.873Z,81.86
2023-04-07T17:11:07.464Z,81.47
2023-04-07T17:13:34.227Z,82.58
2023-04-07T17:16:05.308Z,82.92
2023-04-07T17:18:33.034Z,82.44
2023-04-07T17:20:59.438Z,82.16
2023-04-07T17:23:27.514Z,82.46
2023-04-07T17:25:53.991Z,82.96
2023-04-07T17:28:20.425Z,83.31
2023-04-07T17:30:47.115Z,82.75
2023-04-07T17:33:13.577Z,81.93
2023-04-07T17:35:40.291Z,82.16
2023-04-07T17:38:07.157Z,81.72
2023-04-07T17:40:33.591Z,82.43
2023-04-07T17:43:00.213Z,82.29
2023-04-07T17:45:26.763Z,82.57
2023-04-07T17:47:53.355Z,81.71
2023-04-07T17:50:19.810Z,82.19
2023-04-07T17:52:46.752Z,82.55
2023-04-07T17:55:13.273Z,81.62
2023-04-07T17:57:42.071Z,83.43
2023-04-07T18:00:09.008Z,82.53
2023-04-07T18:02:35.959Z,83.00
2023-04-07T18:05:03.667Z,83.64
2023-04-07T18:07:30.388Z,83.39
2023-04-07T18:09:57.904Z,83.66
2023-04-07T18:12:24.539Z,83.51
2023-04-07T18:14:51.107Z,83.74
2023-04-07T18:17:17.640Z,83.57
2023-04-07T18:19:44.184Z,82.65
2023-04-07T18:22:10.818Z,83.68
2023-04-07T18:24:37.472Z,84.18
2023-04-07T18:27:04.136Z,84.51
2023-04-07T18:29:33.811Z,83.67
2023-04-07T18:32:00.445Z,83.17
2023-04-07T18:34:27.076Z,83.59
2023-04-07T18:36:53.975Z,83.01
2023-04-07T18:39:20.503Z,83.48
2023-04-07T18:41:48.294Z,83.49
2023-04-07T18:44:15.086Z,84.27
2023-04-07T18:46:41.876Z,84.90
2023-04-07T18:49:08.316Z,84.36
2023-04-07T18:51:34.893Z,84.43
2023-04-07T18:54:01.360Z,84.20
2023-04-07T18:56:28.400Z,83.61
2023-04-07T18:58:54.929Z,83.87
2023-04-07T19:01:21.729Z,83.96
2023-04-07T19:03:48.542Z,83.29
2023-04-07T19:06:16.439Z,83.09
2023-04-07T19:08:43.080Z,83.34
2023-04-07T19:11:10.064Z,83.70
2023-04-07T19:13:36.560Z,82.98
2023-04-07T19:16:03.218Z,83.28
2023-04-07T19:18:31.608Z,83.06
2023-04-07T19:20:58.049Z,82.97
2023-04-07T19:23:26.119Z,83.26
2023-04-07T19:25:52.680Z,83.41
2023-04-07T19:28:19.148Z,83.90
2023-04-07T19:30:45.871Z,84.12
2023-04-07T19:33:12.295Z,83.48
2023-04-07T19:35:41.631Z,84.33
2023-04-07T19:38:08.182Z,84.63
2023-04-07T19:40:36.333Z,84.79
2023-04-07T19:43:03.054Z,84.24
2023-04-07T19:45:29.486Z,84.67
2023-04-07T19:47:56.765Z,84.44
2023-04-07T19:50:23.442Z,84.43
2023-04-07T19:52:50.678Z,84.69
2023-04-07T19:55:17.148Z,84.72
2023-04-07T19:57:43.699Z,84.18
2023-04-07T20:00:11.096Z,84.62
2023-04-07T20:02:37.872Z,84.69
2023-04-07T20:05:04.980Z,84.81
2023-04-07T20:07:33.347Z,85.42
2023-04-07T20:09:59.929Z,85.35
2023-04-07T20:12:26.432Z,85.81
2023-04-07T20:14:52.876Z,85.35
2023-04-07T20:17:19.727Z,86.30
2023-04-07T20:19:47.081Z,85.81
2023-04-07T20:22:13.589Z,85.66
2023-04-07T20:24:40.222Z,86.56
2023-04-07T20:27:06.733Z,85.95
2023-04-07T20:29:33.168Z,85.02
2023-04-07T20:31:59.561Z,85.87
2023-04-07T20:34:26.046Z,86.28
2023-04-07T20:36:52.488Z,85.82
2023-04-07T20:39:19.029Z,85.40
2023-04-07T20:41:45.690Z,85.43
2023-04-07T20:44:12.204Z,85.29
2023-04-07T20:46:38.718Z,84.79
2023-04-07T20:49:07.635Z,84.89
2023-04-07T20:51:36.674Z,84.39
2023-04-07T20:54:03.778Z,84.02
2023-04-07T20:56:30.324Z,84.16
2023-04-07T20:58:56.771Z,84.55
2023-04-07T21:01:23.448Z,84.10
2023-04-07T21:03:50.066Z,84.80
2023-04-07T21:06:16.472Z,84.60
2023-04-07T21:08:42.853Z,85.48
2023-04-07T21:11:09.324Z,85.26
2023-04-07T21:13:36.027Z,84.74
2023-04-07T21:16:03.836Z,85.43
2023-04-07T21:18:30.694Z,85.84
2023-04-07T21:21:01.828Z,85.91
2023-04-07T21:23:28.394Z,86.83
2023-04-07T21:25:59.902Z,87.06
2023-04-07T21:28:26.387Z,86.74
2023-04-07T21:30:55.659Z,86.49
2023-04-07T21:33:22.672Z,85.64
2023-04-07T21:35:49.806Z,85.67
2023-04-07T21:38:16.470Z,85.89
2023-04-07T21:40:43.020Z,86.05
2023-04-07T21:43:09.391Z,85.79
2023-04-07T21:45:35.844Z,87.45
2023-04-07T21:48:02.339Z,88.16
2023-04-07T21:50:29.362Z,88.35
2023-04-07T21:52:55.832Z,88.14
2023-04-07T21:55:22.285Z,87.21
2023-04-07T21:57:50.213Z,86.44
2023-04-07T22:00:16.860Z,85.96
2023-04-07T22:02:43.848Z,87.34
2023-04-07T22:05:10.816Z,87.21
2023-04-07T22:07:37.664Z,87.02
2023-04-07T22:10:04.852Z,87.40
2023-04-07T22:12:31.337Z,87.20
2023-04-07T22:14:57.755Z,87.27
2023-04-07T22:17:24.254Z,87.34
2023-04-07T22:19:50.676Z,87.49
2023-04-07T22:22:17.167Z,87.24
2023-04-07T22:24:43.604Z,88.38
2023-04-07T22:27:10.341Z,88.64
2023-04-07T22:29:36.805Z,88.87
2023-04-07T22:32:03.268Z,88.90
2023-04-07T22:34:29.684Z,90.03
2023-04-07T22:36:56.055Z,89.34
2023-04-07T22:39:23.565Z,88.90
2023-04-07T22:41:49.978Z,87.58
2023-04-07T22:44:16.384Z,87.75
2023-04-07T22:46:42.944Z,87.60
2023-04-07T22:49:09.730Z,88.50
2023-04-07T22:51:36.746Z,88.66
2023-04-07T22:54:03.256Z,89.48
2023-04-07T22:56:29.658Z,89.81
2023-04-07T22:58:57.508Z,90.37
2023-04-07T23:01:24.008Z,89.27
2023-04-07T23:03:50.611Z,88.01
2023-04-07T23:06:17.101Z,88.82
2023-04-07T23:08:44.912Z,88.53
2023-04-07T23:11:11.420Z,87.98
2023-04-07T23:13:38.357Z,88.70
2023-04-07T23:16:06.337Z,88.94
2023-04-07T23:18:33.044Z,87.78
2023-04-07T23:20:59.466Z,87.85
2023-04-07T23:23:25.893Z,87.51
2023-04-07T23:25:52.339Z,87.76
2023-04-07T23:28:18.734Z,88.04
2023-04-07T23:30:45.476Z,88.11
2023-04-07T23:33:12.416Z,88.29
2023-04-07T23:35:38.878Z,88.28
2023-04-07T23:38:05.503Z,87.10
2023-04-07T23:40:31.990Z,87.06
2023-04-07T23:42:58.413Z,86.18
2023-04-07T23:45:24.895Z,86.90
2023-04-07T23:47:51.399Z,87.10
2023-04-07T23:50:17.980Z,87.07
2023-04-07T23:52:44.486Z,88.88
2023-04-07T23:55:11.086Z,88.70
2023-04-07T23:57:37.509Z,88.77
